Time;durP1;ratioP1;P1;durP2;ratioP2;P2;SDS_P1;SDS_P2;PMS_P1;PMS_P2;Temp;Humidity;BMP_temperature;BMP_pressure;BME280_temperature;BME280_humidity;BME280_pressure;Samples;Min_cycle;Max_cycle;Signal;HPM_P1;HPM_P2
2023/10/07 00:01:24;;;;;;;7.38;3.78;;;;;;;16.82;79.68;101086.97;7374744;19;20389;-60
2023/10/07 00:03:53;;;;;;;7.83;3.80;;;;;;;16.88;79.37;101080.78;7378994;19;20383;-61
2023/10/07 00:06:27;;;;;;;8.20;4.30;;;;;;;16.91;79.35;101093.75;7379257;19;20380;-61
2023/10/07 00:08:58;;;;;;;8.47;3.80;;;;;;;16.97;79.04;101076.84;7383297;19;20388;-59
2023/10/07 00:11:27;;;;;;;11.55;4.88;;;;;;;16.98;79.07;101077.66;7378752;19;20428;-60
2023/10/07 00:13:55;;;;;;;8.15;3.90;;;;;;;16.97;79.22;101086.75;7381434;19;20364;-61
2023/10/07 00:16:23;;;;;;;8.20;3.78;;;;;;;17.00;79.09;101078.28;7380752;19;20353;-61
2023/10/07 00:18:53;;;;;;;9.65;4.10;;;;;;;17.00;79.36;101092.53;7379284;19;20376;-61
2023/10/07 00:21:26;;;;;;;10.13;4.57;;;;;;;17.02;79.13;101084.28;7378334;19;20387;-61
2023/10/07 00:23:57;;;;;;;6.75;4.10;;;;;;;16.99;79.26;101098.09;7382186;19;20377;-61
2023/10/07 00:26:27;;;;;;;8.98;4.38;;;;;;;16.96;79.58;101080.59;7382337;19;20360;-60
2023/10/07 00:29:00;;;;;;;8.73;4.17;;;;;;;16.92;79.70;101096.25;7382065;19;20344;-61
2023/10/07 00:31:32;;;;;;;8.57;4.10;;;;;;;16.90;79.95;101095.63;7376965;19;20364;-61
2023/10/07 00:34:16;;;;;;;8.82;3.90;;;;;;;16.92;79.88;101085.53;7381626;19;20364;-61
2023/10/07 00:36:43;;;;;;;6.95;3.90;;;;;;;16.92;79.97;101080.16;7380763;19;20380;-61
2023/10/07 00:39:19;;;;;;;8.57;4.40;;;;;;;16.91;80.27;101091.09;7379664;19;20357;-62
2023/10/07 00:41:50;;;;;;;7.70;4.45;;;;;;;16.89;80.43;101088.63;7379640;19;20371;-61
2023/10/07 00:44:26;;;;;;;9.02;4.13;;;;;;;16.94;80.30;101088.00;7379193;19;20415;-61
2023/10/07 00:49:39;;;;;;;10.10;4.00;;;;;;;16.93;80.23;101094.38;7381178;19;20355;-62
2023/10/07 00:52:11;;;;;;;8.05;4.07;;;;;;;16.93;80.23;101091.69;7381830;19;20368;-61
2023/10/07 00:57:24;;;;;;;9.48;4.70;;;;;;;16.97;80.08;101071.50;7383624;19;20346;-61
2023/10/07 00:59:51;;;;;;;8.35;4.35;;;;;;;16.94;80.50;101077.28;7381853;19;20368;-62
2023/10/07 01:02:29;;;;;;;8.88;4.22;;;;;;;16.96;80.44;101075.22;7386908;19;20389;-61
2023/10/07 01:05:06;;;;;;;10.02;4.10;;;;;;;16.92;80.40;101090.06;7387953;19;20368;-62
2023/10/07 01:07:34;;;;;;;7.85;4.10;;;;;;;16.95;80.32;101080.78;7382512;19;20376;-61
2023/10/07 01:12:38;;;;;;;11.87;4.63;;;;;;;16.92;80.42;101069.44;7384360;19;20368;-61
2023/10/07 01:17:47;;;;;;;7.78;3.70;;;;;;;16.98;80.75;101067.81;7383067;19;20391;-61
2023/10/07 01:20:14;;;;;;;8.50;3.80;;;;;;;16.99;80.75;101066.75;7382758;19;20396;-61
2023/10/07 01:23:00;;;;;;;11.13;4.63;;;;;;;16.98;80.60;101073.16;7382308;19;20391;-61
2023/10/07 01:25:29;;;;;;;8.63;3.80;;;;;;;16.99;80.59;101066.75;7380939;19;20372;-59
2023/10/07 01:27:56;;;;;;;10.95;4.00;;;;;;;17.00;80.61;101071.09;7386524;19;20388;-60
2023/10/07 01:30:34;;;;;;;9.32;3.70;;;;;;;17.01;80.51;101067.38;7387683;19;20365;-61
2023/10/07 01:33:24;;;;;;;9.65;4.10;;;;;;;17.01;80.44;101055.84;7385897;19;20880;-62
2023/10/07 01:38:41;;;;;;;8.40;3.85;;;;;;;17.06;80.48;101064.88;7386161;19;20356;-61
2023/10/07 01:41:18;;;;;;;8.50;4.10;;;;;;;17.04;80.56;101072.34;7380715;19;20385;-60
2023/10/07 01:43:59;;;;;;;8.93;4.15;;;;;;;17.04;80.59;101083.06;7383861;19;20454;-62
2023/10/07 01:46:34;;;;;;;8.65;3.88;;;;;;;17.01;80.62;101075.41;7383853;19;20392;-61
2023/10/07 01:49:12;;;;;;;7.80;4.28;;;;;;;17.04;80.74;101072.34;7380816;19;20369;-60
2023/10/07 01:51:45;;;;;;;11.43;4.20;;;;;;;17.05;80.72;101073.16;7380994;19;20361;-62
2023/10/07 01:54:12;;;;;;;9.83;4.20;;;;;;;17.06;80.48;101069.41;7382580;19;20363;-61
2023/10/07 01:56:39;;;;;;;7.90;4.30;;;;;;;17.05;80.63;101068.59;7379908;19;20364;-62
2023/10/07 02:01:47;;;;;;;12.73;4.50;;;;;;;17.09;80.60;101069.84;7379586;19;20336;-62
2023/10/07 02:04:18;;;;;;;8.35;3.63;;;;;;;17.06;80.71;101064.88;7383856;19;20356;-60
2023/10/07 02:06:51;;;;;;;8.13;3.80;;;;;;;17.08;80.60;101062.81;7380768;19;20659;-60
2023/10/07 02:09:25;;;;;;;10.15;4.53;;;;;;;17.10;80.73;101063.44;7381365;19;20376;-61
2023/10/07 02:11:54;;;;;;;9.43;4.17;;;;;;;17.09;80.55;101079.75;7382847;19;20363;-61
2023/10/07 02:14:25;;;;;;;7.72;3.80;;;;;;;17.10;80.54;101065.28;7382512;19;20898;-62
2023/10/07 02:16:56;;;;;;;9.32;4.35;;;;;;;17.09;80.53;101069.03;7379490;19;20352;-61
2023/10/07 02:19:29;;;;;;;8.10;4.07;;;;;;;17.07;80.80;101071.91;7383166;19;20328;-61
2023/10/07 02:22:04;;;;;;;8.35;4.00;;;;;;;17.03;80.81;101078.72;7382533;19;20385;-61
2023/10/07 02:24:32;;;;;;;12.48;4.53;;;;;;;17.06;81.06;101078.28;7383996;19;20910;-60
2023/10/07 02:27:25;;;;;;;7.38;4.07;;;;;;;17.07;80.75;101071.09;7381450;19;20511;-61
2023/10/07 02:29:51;;;;;;;7.63;3.83;;;;;;;17.02;80.93;101074.41;7380667;19;20761;-61
2023/10/07 02:32:18;;;;;;;8.87;4.30;;;;;;;17.03;80.68;101065.31;7381800;19;20428;-61
2023/10/07 02:34:51;;;;;;;9.25;4.57;;;;;;;17.02;80.75;101073.56;7381884;19;20365;-61
2023/10/07 02:37:25;;;;;;;7.47;3.95;;;;;;;16.99;81.05;101064.06;7380533;19;20412;-61
2023/10/07 02:40:18;;;;;;;8.45;4.05;;;;;;;16.99;81.12;101061.41;7383300;19;20821;-61
2023/10/07 02:42:48;;;;;;;8.40;4.60;;;;;;;16.99;81.30;101058.72;7380983;19;20734;-62
2023/10/07 02:47:54;;;;;;;8.07;4.45;;;;;;;17.04;81.24;101058.09;7381244;19;20353;-62
2023/10/07 02:50:25;;;;;;;9.70;4.03;;;;;;;17.01;81.31;101053.97;7379653;19;20404;-61
2023/10/07 02:52:54;;;;;;;8.98;4.50;;;;;;;17.00;81.23;101064.91;7379099;19;20401;-61
2023/10/07 02:57:57;;;;;;;9.40;4.20;;;;;;;17.02;81.17;101046.75;7380179;19;20895;-61
2023/10/07 03:00:38;;;;;;;7.78;4.13;;;;;;;17.01;81.26;101037.06;7382457;19;20787;-60
2023/10/07 03:05:45;;;;;;;8.17;4.60;;;;;;;17.04;81.13;101029.44;7377064;19;20379;-61
2023/10/07 03:08:19;;;;;;;9.83;4.30;;;;;;;16.99;81.47;101047.19;7381489;19;20422;-59
2023/10/07 03:11:10;;;;;;;11.00;4.50;;;;;;;17.05;81.45;101047.16;7379425;19;20443;-62
2023/10/07 03:13:49;;;;;;;9.35;4.15;;;;;;;17.03;81.72;101040.38;7380161;19;20880;-61
2023/10/07 03:19:06;;;;;;;10.27;4.82;;;;;;;17.05;81.46;101025.72;7379606;19;20436;-62
2023/10/07 03:24:08;;;;;;;8.75;4.40;;;;;;;17.05;81.54;101038.31;7382390;19;20371;-60
2023/10/07 03:26:36;;;;;;;10.27;3.90;;;;;;;17.04;81.66;101034.81;7377836;19;20385;-60
2023/10/07 03:29:06;;;;;;;11.60;4.35;;;;;;;17.04;81.41;101034.81;7377017;19;20423;-61
2023/10/07 03:31:35;;;;;;;9.43;4.90;;;;;;;17.02;81.49;101031.50;7379272;19;20884;-62
2023/10/07 03:34:03;;;;;;;9.57;4.55;;;;;;;17.03;81.68;101022.44;7381506;19;20360;-61
2023/10/07 03:37:16;;;;;;;7.80;4.28;;;;;;;17.00;81.88;101030.91;7377866;19;20376;-61
2023/10/07 03:39:23;;;;;;;7.97;3.95;;;;;;;17.00;81.54;101038.94;7378544;19;20360;-61
2023/10/07 03:41:52;;;;;;;9.77;4.47;;;;;;;17.01;81.84;101023.69;7379446;19;20435;-61
2023/10/07 03:44:28;;;;;;;8.80;4.50;;;;;;;16.96;81.94;101021.63;7377429;19;20375;-62
2023/10/07 03:46:57;;;;;;;9.55;4.63;;;;;;;16.95;82.14;101037.91;7381205;19;20336;-62
2023/10/07 03:49:33;;;;;;;9.38;4.97;;;;;;;16.95;82.18;101036.03;7374082;19;20364;-62
2023/10/07 03:52:07;;;;;;;8.55;4.65;;;;;;;16.94;82.80;101031.72;7378556;19;20369;-61
2023/10/07 03:54:35;;;;;;;11.35;5.18;;;;;;;16.90;83.14;101031.31;7373955;19;20432;-61
2023/10/07 03:57:02;;;;;;;9.15;5.18;;;;;;;16.87;83.82;101044.28;7375446;19;20697;-61
2023/10/07 03:59:39;;;;;;;11.43;5.23;;;;;;;16.80;84.86;101036.28;7380386;19;20345;-62
2023/10/07 04:04:59;;;;;;;9.38;5.65;;;;;;;16.58;86.18;101065.09;7379483;19;20356;-61
2023/10/07 04:07:29;;;;;;;9.70;6.10;;;;;;;16.50;87.27;101033.97;7380130;19;20898;-61
2023/10/07 04:10:31;;;;;;;10.90;6.28;;;;;;;16.36;88.99;101043.03;7377339;19;20360;-61
2023/10/07 04:12:58;;;;;;;11.48;6.53;;;;;;;16.25;90.21;101040.97;7379026;19;20357;-61
2023/10/07 04:15:34;;;;;;;9.87;6.53;;;;;;;16.13;91.85;101043.44;7378551;19;21055;-61
2023/10/07 04:18:03;;;;;;;12.32;7.07;;;;;;;16.01;92.79;101039.69;7379524;19;20779;-60
2023/10/07 04:21:12;;;;;;;13.05;8.02;;;;;;;15.92;94.06;101040.88;7378657;19;20404;-62
2023/10/07 04:23:24;;;;;;;13.50;8.18;;;;;;;15.83;94.74;101035.75;7380492;19;20367;-62
2023/10/07 04:25:56;;;;;;;10.70;7.67;;;;;;;15.77;95.64;101033.03;7386424;19;20875;-61
2023/10/07 04:28:25;;;;;;;12.10;7.77;;;;;;;15.69;96.13;101042.03;7379983;19;20907;-61
2023/10/07 04:30:53;;;;;;;13.70;8.40;;;;;;;15.65;96.82;101024.75;7386386;19;20377;-61
2023/10/07 04:33:32;;;;;;;12.40;8.23;;;;;;;15.57;97.62;101033.75;7387633;19;20371;-61
2023/10/07 04:36:04;;;;;;;10.18;7.95;;;;;;;15.54;97.90;101034.16;7389507;19;20360;-62
2023/10/07 04:38:53;;;;;;;12.52;8.40;;;;;;;15.56;98.13;101025.94;7386134;19;20348;-61
2023/10/07 04:46:43;;;;;;;13.45;9.73;;;;;;;15.55;99.32;101026.97;7386272;19;20372;-63
2023/10/07 04:49:12;;;;;;;13.60;10.13;;;;;;;15.47;100.00;101038.63;7386118;19;20469;-64
2023/10/07 04:54:11;;;;;;;12.73;11.30;;;;;;;15.40;100.00;101049.31;7386894;19;20367;-64
2023/10/07 04:56:39;;;;;;;13.63;11.68;;;;;;;15.37;100.00;101039.03;7384535;19;20715;-64
2023/10/07 04:59:06;;;;;;;14.43;12.27;;;;;;;15.34;100.00;101028.69;7386313;19;20700;-65
2023/10/07 05:01:34;;;;;;;15.30;12.13;;;;;;;15.33;100.00;101040.44;7387028;19;20446;-64
2023/10/07 05:04:09;;;;;;;14.38;11.98;;;;;;;15.28;100.00;101051.72;7385777;19;20689;-65
2023/10/07 05:06:38;;;;;;;17.25;13.32;;;;;;;15.31;100.00;101033.63;7387741;19;21195;-65
2023/10/07 05:09:10;;;;;;;14.80;12.18;;;;;;;15.35;100.00;101024.22;7387370;19;20337;-66
2023/10/07 05:11:43;;;;;;;14.07;12.10;;;;;;;15.36;100.00;101031.19;7384430;19;20412;-65
2023/10/07 05:14:15;;;;;;;15.02;12.30;;;;;;;15.39;100.00;101039.66;7370370;19;20797;-65
2023/10/07 05:16:46;;;;;;;15.13;12.10;;;;;;;15.44;100.00;101023.00;7381338;19;20365;-65
2023/10/07 05:19:22;;;;;;;17.33;12.17;;;;;;;15.47;100.00;101050.19;7383504;19;20356;-65
2023/10/07 05:21:59;;;;;;;15.93;11.80;;;;;;;15.50;100.00;101023.03;7383795;19;20963;-64
2023/10/07 05:24:30;;;;;;;14.40;11.88;;;;;;;15.54;100.00;101031.50;7384245;19;20357;-65
2023/10/07 05:26:59;;;;;;;15.85;11.60;;;;;;;15.59;100.00;101028.22;7385868;19;20904;-65
2023/10/07 05:29:30;;;;;;;12.02;10.23;;;;;;;15.62;100.00;101019.78;7382757;19;20368;-64
2023/10/07 05:31:57;;;;;;;14.10;10.73;;;;;;;15.64;100.00;101023.91;7382143;19;20372;-65
2023/10/07 05:34:33;;;;;;;14.07;11.27;;;;;;;15.68;100.00;101029.69;7381542;19;20369;-64
2023/10/07 05:37:03;;;;;;;14.57;11.30;;;;;;;15.74;100.00;101020.88;7381926;19;20703;-64
2023/10/07 05:39:32;;;;;;;14.43;11.27;;;;;;;15.78;100.00;101011.44;7382258;19;20439;-64
2023/10/07 05:42:00;;;;;;;13.15;11.15;;;;;;;15.80;100.00;101033.47;7382154;19;20852;-63
2023/10/07 05:44:30;;;;;;;13.82;11.05;;;;;;;15.88;99.87;101013.72;7385846;19;20361;-63
2023/10/07 05:46:59;;;;;;;17.50;11.63;;;;;;;15.92;99.67;101039.06;7390000;19;20413;-64
2023/10/07 05:49:26;;;;;;;14.30;11.20;;;;;;;15.97;99.24;101022.41;7391005;19;20888;-64
2023/10/07 05:51:53;;;;;;;13.88;11.55;;;;;;;15.99;99.10;101020.34;7399245;19;20364;-64
2023/10/07 05:54:20;;;;;;;15.38;11.02;;;;;;;16.00;99.09;101021.97;7391530;19;20756;-63
2023/10/07 05:56:49;;;;;;;17.70;11.85;;;;;;;16.02;99.10;101030.63;7396560;19;20689;-63
2023/10/07 05:59:16;;;;;;;14.68;11.52;;;;;;;16.02;98.99;101031.47;7397316;19;20691;-64
2023/10/07 06:01:43;;;;;;;16.30;12.30;;;;;;;16.03;98.75;101032.28;7395729;19;20375;-63
2023/10/07 06:04:11;;;;;;;14.55;11.70;;;;;;;16.04;98.37;101028.56;7399335;19;20938;-63
2023/10/07 06:06:42;;;;;;;16.10;12.38;;;;;;;16.06;98.52;101032.69;7397249;19;20348;-63
2023/10/07 06:09:16;;;;;;;15.47;11.90;;;;;;;16.11;98.49;101034.78;7393176;19;21065;-63
2023/10/07 06:11:43;;;;;;;17.43;12.93;;;;;;;16.12;98.43;101040.94;7393731;19;20372;-63
2023/10/07 06:14:11;;;;;;;17.35;12.75;;;;;;;16.19;98.14;101023.03;7397796;19;20359;-63
2023/10/07 06:16:39;;;;;;;15.27;12.45;;;;;;;16.21;98.09;101029.84;7394576;19;20435;-63
2023/10/07 06:19:07;;;;;;;15.43;12.63;;;;;;;16.20;97.89;101063.00;7396131;19;20337;-64
2023/10/07 06:21:34;;;;;;;18.05;13.32;;;;;;;16.25;97.61;101031.06;7396133;19;20362;-63
2023/10/07 06:24:07;;;;;;;17.17;13.13;;;;;;;16.25;97.41;101017.69;7396105;19;20364;-63
2023/10/07 06:26:35;;;;;;;19.55;13.27;;;;;;;16.27;97.70;101049.63;7396654;19;20955;-63
2023/10/07 06:29:18;;;;;;;16.02;12.57;;;;;;;16.32;97.33;101036.47;7392844;19;20357;-64
2023/10/07 06:31:55;;;;;;;17.75;13.23;;;;;;;16.36;97.03;101036.84;7397880;19;20414;-63
2023/10/07 06:34:25;;;;;;;16.23;13.43;;;;;;;16.37;97.09;101051.91;7394963;19;20438;-62
2023/10/07 06:36:52;;;;;;;15.45;11.98;;;;;;;16.31;96.92;101046.31;7396924;19;20374;-63
2023/10/07 06:39:27;;;;;;;18.08;12.63;;;;;;;16.36;97.29;101024.28;7396916;19;20377;-63
2023/10/07 06:41:57;;;;;;;18.20;12.52;;;;;;;16.36;97.04;101036.84;7397255;19;20350;-62
2023/10/07 06:44:30;;;;;;;16.65;13.30;;;;;;;16.39;96.83;101026.56;7394745;19;20894;-63
2023/10/07 06:46:57;;;;;;;16.65;13.00;;;;;;;16.41;96.69;101043.25;7392917;19;20373;-63
2023/10/07 06:49:24;;;;;;;18.50;12.52;;;;;;;16.40;96.50;101036.25;7394288;19;20365;-62
2023/10/07 06:51:59;;;;;;;15.40;13.02;;;;;;;16.42;96.55;101034.19;7396357;19;20366;-63
2023/10/07 06:54:32;;;;;;;19.05;13.05;;;;;;;16.48;96.27;101033.38;7394431;19;20361;-62
2023/10/07 06:57:01;;;;;;;17.67;12.88;;;;;;;16.51;96.30;101029.44;7392164;19;20678;-62
2023/10/07 06:59:28;;;;;;;17.13;12.98;;;;;;;16.50;95.81;101025.94;7395066;19;20434;-63
2023/10/07 07:01:57;;;;;;;18.90;13.50;;;;;;;16.53;95.59;101040.78;7393814;19;20349;-63
2023/10/07 07:04:25;;;;;;;17.67;13.90;;;;;;;16.54;95.67;101045.13;7395531;19;20364;-62
2023/10/07 07:07:09;;;;;;;16.88;13.38;;;;;;;16.48;95.84;101040.56;7389313;19;20935;-63
2023/10/07 07:12:21;;;;;;;18.95;14.18;;;;;;;16.49;95.82;101051.09;7391652;19;20381;-63
2023/10/07 07:14:59;;;;;;;20.00;14.07;;;;;;;16.52;95.77;101042.63;7393232;19;20348;-63
2023/10/07 07:17:29;;;;;;;18.83;14.02;;;;;;;16.50;95.74;101033.16;7394878;19;20896;-63
2023/10/07 07:22:44;;;;;;;16.40;12.80;;;;;;;16.52;96.04;101039.13;7394019;19;20364;-63
2023/10/07 07:25:35;;;;;;;16.73;13.90;;;;;;;16.56;95.91;101045.72;7393313;19;20463;-62
2023/10/07 07:28:09;;;;;;;20.05;14.65;;;;;;;16.64;95.81;101056.25;7391116;19;20349;-63
2023/10/07 07:30:36;;;;;;;18.33;13.37;;;;;;;16.66;95.60;101064.91;7392039;19;20429;-63
2023/10/07 07:33:08;;;;;;;19.65;14.18;;;;;;;16.70;95.46;101065.28;7394413;19;20657;-63
2023/10/07 07:35:40;;;;;;;20.17;14.10;;;;;;;16.66;95.43;101058.69;7394255;19;20408;-63
2023/10/07 07:41:05;;;;;;;19.17;14.73;;;;;;;16.71;95.26;101054.38;7394402;19;20426;-63
2023/10/07 07:43:38;;;;;;;17.20;13.80;;;;;;;16.75;95.29;101046.75;7391899;19;20708;-62
2023/10/07 07:48:39;;;;;;;19.23;14.57;;;;;;;16.87;94.85;101049.66;7393633;19;20369;-62
2023/10/07 07:51:07;;;;;;;20.27;14.35;;;;;;;16.89;94.74;101037.72;7394355;19;20864;-63
2023/10/07 07:53:34;;;;;;;20.20;15.05;;;;;;;16.91;94.29;101034.81;7393779;19;20382;-63
2023/10/07 07:56:00;;;;;;;15.83;13.90;;;;;;;16.94;93.89;101038.91;7394751;19;20367;-62
2023/10/07 07:58:27;;;;;;;19.27;14.60;;;;;;;16.99;94.09;101037.28;7391020;19;20348;-63
2023/10/07 08:01:07;;;;;;;18.17;14.52;;;;;;;17.03;93.75;101022.44;7394195;19;20649;-62
2023/10/07 08:03:35;;;;;;;18.95;15.20;;;;;;;17.07;93.43;101045.09;7392229;19;20347;-62
2023/10/07 08:06:06;;;;;;;21.00;15.43;;;;;;;17.15;93.75;101045.91;7394746;19;20367;-62
2023/10/07 08:08:36;;;;;;;17.70;14.65;;;;;;;17.10;93.65;101060.75;7391750;19;20370;-63
2023/10/07 08:11:05;;;;;;;20.35;15.07;;;;;;;17.09;93.68;101052.94;7394564;19;20340;-62
2023/10/07 08:13:32;;;;;;;18.65;13.88;;;;;;;17.06;94.01;101059.50;7394199;19;20373;-63
2023/10/07 08:16:06;;;;;;;18.65;14.40;;;;;;;17.05;94.13;101051.72;7392735;19;20344;-62
2023/10/07 08:18:33;;;;;;;17.98;14.25;;;;;;;17.05;94.42;101065.94;7393105;19;20729;-62
2023/10/07 08:21:13;;;;;;;19.77;15.23;;;;;;;17.11;94.12;101066.97;7393017;19;20428;-63
2023/10/07 08:23:43;;;;;;;18.00;14.90;;;;;;;17.11;94.21;101051.69;7392763;19;20381;-62
2023/10/07 08:28:43;;;;;;;20.48;15.02;;;;;;;17.09;94.18;101050.25;7393953;19;20364;-63
2023/10/07 08:31:20;;;;;;;18.55;14.18;;;;;;;17.12;94.55;101058.69;7393387;19;20372;-62
2023/10/07 08:33:53;;;;;;;18.15;13.90;;;;;;;17.14;94.51;101060.34;7393828;19;20391;-62
2023/10/07 08:36:29;;;;;;;20.05;15.23;;;;;;;17.07;94.28;101055.00;7393488;19;20361;-63
2023/10/07 08:38:58;;;;;;;16.42;14.27;;;;;;;17.07;95.02;101050.47;7391709;19;20357;-62
2023/10/07 08:41:28;;;;;;;18.20;14.68;;;;;;;17.10;94.80;101060.75;7390299;19;20728;-64
2023/10/07 08:44:12;;;;;;;19.35;15.40;;;;;;;17.11;94.93;101046.31;7389492;19;20943;-64
2023/10/07 08:46:45;;;;;;;19.35;15.27;;;;;;;17.08;95.03;101046.72;7394159;19;20328;-63
2023/10/07 08:49:15;;;;;;;17.98;15.40;;;;;;;17.12;94.69;101042.59;7393219;19;20364;-63
2023/10/07 08:51:43;;;;;;;20.55;14.18;;;;;;;17.09;94.87;101037.66;7391134;19;20424;-63
2023/10/07 08:54:17;;;;;;;22.02;15.98;;;;;;;17.09;94.67;101043.03;7389661;19;20340;-63
2023/10/07 08:56:54;;;;;;;17.50;14.15;;;;;;;17.17;94.83;101022.38;7388743;19;20364;-63
2023/10/07 08:59:22;;;;;;;18.05;16.13;;;;;;;17.20;94.48;101021.97;7394201;19;20348;-63
2023/10/07 09:01:57;;;;;;;20.25;16.02;;;;;;;17.26;94.47;101021.13;7392516;19;20360;-63
2023/10/07 09:04:25;;;;;;;17.83;15.30;;;;;;;17.35;94.09;101014.50;7396317;19;20337;-62
2023/10/07 09:06:52;;;;;;;23.02;16.15;;;;;;;17.37;93.45;101017.78;7392376;19;20368;-63
2023/10/07 09:09:35;;;;;;;21.30;16.02;;;;;;;17.52;93.30;101014.84;7393125;19;20377;-63
2023/10/07 09:12:09;;;;;;;20.02;15.82;;;;;;;17.60;92.77;101006.56;7399737;19;20759;-63
2023/10/07 09:14:40;;;;;;;18.17;15.25;;;;;;;17.79;91.97;101001.31;7397922;19;20899;-63
2023/10/07 09:17:09;;;;;;;20.45;14.50;;;;;;;17.89;91.36;101013.25;7400208;19;20348;-63
2023/10/07 09:19:36;;;;;;;20.70;15.50;;;;;;;18.01;90.45;101002.63;7398430;19;20376;-63
2023/10/07 09:22:10;;;;;;;18.20;13.85;;;;;;;18.08;89.93;101008.78;7398501;19;20855;-63
2023/10/07 09:24:42;;;;;;;18.58;13.93;;;;;;;18.14;89.98;101007.09;7397996;19;20431;-63
2023/10/07 09:27:13;;;;;;;19.60;13.93;;;;;;;18.20;89.64;101000.84;7393806;19;20344;-63
2023/10/07 09:29:49;;;;;;;17.77;14.50;;;;;;;18.25;88.90;100998.31;7393896;19;20907;-63
2023/10/07 09:32:21;;;;;;;20.10;14.60;;;;;;;18.30;88.41;101011.94;7392040;19;20364;-63
2023/10/07 09:34:48;;;;;;;17.67;13.98;;;;;;;18.31;88.47;100996.63;7396145;19;20685;-63
2023/10/07 09:37:23;;;;;;;18.05;14.52;;;;;;;18.43;88.41;100994.06;7398390;19;20871;-63
2023/10/07 09:39:54;;;;;;;19.73;15.07;;;;;;;18.52;88.10;101001.63;7398476;19;20443;-63
2023/10/07 09:42:27;;;;;;;20.13;15.65;;;;;;;18.57;87.76;101011.69;7396442;19;20376;-63
2023/10/07 09:45:08;;;;;;;17.63;14.57;;;;;;;18.63;87.30;101000.06;7398124;19;20344;-63
2023/10/07 09:47:38;;;;;;;19.42;15.35;;;;;;;18.64;86.94;101011.66;7398996;19;20376;-62
2023/10/07 09:53:02;;;;;;;20.85;14.98;;;;;;;18.66;87.56;100994.28;7396633;19;20365;-63
2023/10/07 09:56:11;;;;;;;18.92;15.13;;;;;;;18.65;87.18;100992.63;7395986;19;20734;-63
2023/10/07 09:59:13;;;;;;;22.60;15.98;;;;;;;18.69;87.27;100998.38;7396596;19;20369;-62
2023/10/07 10:01:58;;;;;;;20.30;15.82;;;;;;;18.76;87.21;100993.75;7393124;19;20411;-63
2023/10/07 10:05:12;;;;;;;19.45;13.63;;;;;;;18.80;86.60;101005.75;7399407;19;20364;-63
2023/10/07 10:08:12;;;;;;;17.70;13.07;;;;;;;18.83;86.37;101005.31;7394718;19;20716;-63
2023/10/07 10:10:45;;;;;;;17.00;12.98;;;;;;;18.86;85.68;101007.53;7396792;19;20381;-63
2023/10/07 10:16:04;;;;;;;18.35;13.43;;;;;;;18.95;85.47;101008.06;7396619;19;20358;-63
2023/10/07 10:18:40;;;;;;;19.65;13.57;;;;;;;18.93;85.01;101016.38;7390423;19;20368;-63
2023/10/07 10:21:12;;;;;;;15.43;13.32;;;;;;;18.89;85.12;101020.56;7386140;19;20364;-63
2023/10/07 10:23:41;;;;;;;18.40;13.17;;;;;;;18.88;85.21;101035.03;7396789;19;20428;-63
2023/10/07 10:26:14;;;;;;;17.20;13.23;;;;;;;18.86;85.04;101017.47;7398181;19;20349;-63
2023/10/07 10:28:42;;;;;;;17.27;13.18;;;;;;;18.82;85.93;101018.97;7396726;19;20348;-63
2023/10/07 10:31:20;;;;;;;16.35;12.82;;;;;;;18.85;85.44;101007.75;7398067;19;20345;-62
2023/10/07 10:33:52;;;;;;;17.35;12.43;;;;;;;18.86;85.75;101031.72;7397376;19;20336;-63
2023/10/07 10:36:21;;;;;;;18.05;13.35;;;;;;;18.91;85.70;101036.44;7396240;19;20340;-63
2023/10/07 10:38:51;;;;;;;15.43;12.48;;;;;;;18.92;85.39;101030.84;7386925;19;20366;-63
2023/10/07 10:41:29;;;;;;;16.55;12.10;;;;;;;18.88;86.03;101037.72;7397889;19;20366;-63
2023/10/07 10:44:06;;;;;;;15.35;12.50;;;;;;;18.88;85.80;101053.03;7397962;19;20362;-63
2023/10/07 10:46:44;;;;;;;17.95;13.52;;;;;;;18.91;85.49;101039.97;7395243;19;20332;-63
2023/10/07 10:49:12;;;;;;;15.10;11.82;;;;;;;18.95;85.17;101045.72;7393769;19;20337;-62
2023/10/07 10:51:46;;;;;;;16.53;12.40;;;;;;;19.10;85.33;101042.66;7394828;19;20420;-63
2023/10/07 10:54:17;;;;;;;15.48;11.07;;;;;;;18.95;84.19;101040.31;7394084;19;20361;-63
2023/10/07 10:56:57;;;;;;;16.35;12.45;;;;;;;19.03;84.73;101037.34;7396854;19;20368;-63
2023/10/07 10:59:43;;;;;;;16.85;12.57;;;;;;;19.07;84.18;101024.31;7394700;19;20364;-63
2023/10/07 11:02:17;;;;;;;15.02;12.00;;;;;;;19.03;84.15;101034.66;7391250;19;20368;-63
2023/10/07 11:04:45;;;;;;;15.10;11.63;;;;;;;19.08;84.30;101029.47;7395278;19;20422;-63
2023/10/07 11:07:14;;;;;;;16.43;12.50;;;;;;;19.05;83.97;101040.66;7393337;19;20509;-63
2023/10/07 11:09:42;;;;;;;15.90;12.30;;;;;;;19.06;83.93;101026.19;7391717;19;20360;-63
2023/10/07 11:12:09;;;;;;;13.95;11.25;;;;;;;19.02;84.21;101041.09;7395789;19;20376;-62
2023/10/07 11:14:38;;;;;;;15.13;11.23;;;;;;;19.07;83.45;101022.44;7396365;19;20677;-63
2023/10/07 11:17:05;;;;;;;13.00;10.65;;;;;;;19.07;83.33;101046.63;7391769;19;20372;-63
2023/10/07 11:19:53;;;;;;;13.45;10.85;;;;;;;19.17;83.77;101031.84;7390623;19;20393;-63
2023/10/07 11:22:21;;;;;;;14.07;10.77;;;;;;;19.19;83.36;101022.53;7385950;19;20703;-63
2023/10/07 11:24:50;;;;;;;13.93;10.13;;;;;;;19.10;83.31;101035.41;7387741;19;20375;-63
2023/10/07 11:27:18;;;;;;;13.93;10.48;;;;;;;19.11;83.34;101028.19;7389718;19;20701;-63
2023/10/07 11:29:56;;;;;;;13.60;10.23;;;;;;;19.17;83.63;101031.84;7390793;19;20360;-63
2023/10/07 11:32:29;;;;;;;14.20;9.88;;;;;;;19.20;82.89;101032.22;7389268;19;20348;-63
2023/10/07 11:34:59;;;;;;;13.02;9.43;;;;;;;19.25;83.08;101026.97;7385702;19;20722;-63
2023/10/07 11:37:27;;;;;;;13.48;9.65;;;;;;;19.31;82.80;101030.63;7390100;19;20344;-63
2023/10/07 11:39:55;;;;;;;14.30;9.73;;;;;;;19.39;83.06;101019.59;7388322;19;20372;-63
2023/10/07 11:42:22;;;;;;;10.05;8.32;;;;;;;19.43;82.70;101015.41;7392338;19;21002;-63
2023/10/07 11:44:54;;;;;;;11.55;8.43;;;;;;;19.38;82.24;101019.81;7394140;19;20356;-63
2023/10/07 11:47:24;;;;;;;13.38;8.80;;;;;;;19.47;82.47;101010.41;7394569;19;20733;-63
2023/10/07 11:49:51;;;;;;;11.73;7.80;;;;;;;19.53;81.79;101021.06;7394970;19;20360;-63
2023/10/07 11:52:19;;;;;;;10.15;7.70;;;;;;;19.70;81.76;100998.91;7393390;19;20348;-63
2023/10/07 11:54:47;;;;;;;9.75;7.13;;;;;;;19.74;81.29;101013.56;7392899;19;20361;-63
2023/10/07 11:57:15;;;;;;;9.90;6.97;;;;;;;19.84;80.73;101004.97;7394737;19;20337;-62
2023/10/07 11:59:42;;;;;;;9.13;6.78;;;;;;;19.88;80.31;101000.75;7393070;19;20357;-63
2023/10/07 12:02:10;;;;;;;9.50;6.63;;;;;;;19.88;80.26;100995.38;7392293;19;20344;-63
2023/10/07 12:04:48;;;;;;;9.25;7.03;;;;;;;19.92;80.61;100985.78;7394484;19;20333;-63
2023/10/07 12:07:16;;;;;;;8.80;7.00;;;;;;;19.96;80.54;100985.09;7393923;19;20681;-63
2023/10/07 12:09:48;;;;;;;11.23;7.18;;;;;;;20.04;80.21;101002.81;7393265;19;20369;-63
2023/10/07 12:12:17;;;;;;;9.80;6.82;;;;;;;20.02;79.25;100985.22;7392642;19;20351;-63
2023/10/07 12:14:46;;;;;;;8.23;5.97;;;;;;;20.10;78.97;100982.19;7390591;19;20388;-63
2023/10/07 12:17:14;;;;;;;9.40;6.03;;;;;;;20.11;79.08;100983.84;7388694;19;20389;-63
2023/10/07 12:19:43;;;;;;;8.15;5.78;;;;;;;20.10;79.10;100985.72;7387823;19;20760;-63
2023/10/07 12:22:13;;;;;;;7.38;5.93;;;;;;;20.05;79.05;100992.84;7390075;19;20363;-63
2023/10/07 12:24:41;;;;;;;8.93;6.25;;;;;;;20.01;79.77;101018.59;7378551;19;20419;-62
2023/10/07 12:27:10;;;;;;;9.97;6.40;;;;;;;19.92;79.76;101024.31;7387828;19;20373;-63
2023/10/07 12:29:39;;;;;;;8.77;6.30;;;;;;;19.95;79.70;101002.31;7388154;19;20411;-63
2023/10/07 12:32:05;;;;;;;8.55;6.00;;;;;;;19.95;79.88;101004.16;7393185;19;20372;-63
2023/10/07 12:34:32;;;;;;;8.75;5.70;;;;;;;19.90;79.73;100988.72;7388899;19;20463;-62
2023/10/07 12:36:59;;;;;;;8.63;6.20;;;;;;;20.03;80.00;101000.34;7388234;19;20693;-62